Time;durP1;ratioP1;P1;durP2;ratioP2;P2;SDS_P1;SDS_P2;PMS_P1;PMS_P2;Temp;Humidity;BMP_temperature;BMP_pressure;BME280_temperature;BME280_humidity;BME280_pressure;Samples;Min_cycle;Max_cycle;Signal;HPM_P1;HPM_P2
2022/11/29 00:01:09;;;;;;;84.47;34.30;;;8.70;99.90;;;;;;5020994;23;20108;-53
2022/11/29 00:03:36;;;;;;;67.60;32.60;;;8.70;99.90;;;;;;5009403;28;20037;-51
2022/11/29 00:06:16;;;;;;;78.37;32.93;;;8.70;99.90;;;;;;5009165;28;20026;-51
2022/11/29 00:08:42;;;;;;;79.47;34.37;;;8.70;99.90;;;;;;5009123;28;20422;-52
2022/11/29 00:11:10;;;;;;;78.70;34.37;;;8.70;99.90;;;;;;5009434;28;20097;-51
2022/11/29 00:13:36;;;;;;;72.05;31.88;;;8.70;99.90;;;;;;5008917;28;20034;-49
2022/11/29 00:16:08;;;;;;;74.70;33.17;;;8.70;99.90;;;;;;5008574;28;20041;-50
2022/11/29 00:18:34;;;;;;;73.17;34.07;;;8.70;99.90;;;;;;5008630;28;20038;-48
2022/11/29 00:21:07;;;;;;;73.10;32.83;;;8.70;99.90;;;;;;5009009;28;20029;-49
2022/11/29 00:23:33;;;;;;;70.03;33.40;;;8.70;99.90;;;;;;5009369;28;20038;-50
2022/11/29 00:26:04;;;;;;;72.00;33.90;;;8.70;99.90;;;;;;5009330;28;20040;-50
2022/11/29 00:28:30;;;;;;;80.37;33.63;;;8.70;99.90;;;;;;5008387;28;20427;-52
2022/11/29 00:30:55;;;;;;;88.10;34.73;;;8.70;99.90;;;;;;5008417;28;20153;-50
2022/11/29 00:33:21;;;;;;;81.83;34.17;;;8.60;99.90;;;;;;5008481;28;20034;-48
2022/11/29 00:35:47;;;;;;;74.77;34.90;;;8.60;99.90;;;;;;5009441;28;20033;-51
2022/11/29 00:38:13;;;;;;;81.80;34.07;;;8.60;99.90;;;;;;5009020;28;20107;-49
2022/11/29 00:40:38;;;;;;;86.00;34.33;;;8.60;99.90;;;;;;5009016;28;20700;-50
2022/11/29 00:43:04;;;;;;;72.07;34.80;;;8.60;99.90;;;;;;5009129;28;20173;-51
2022/11/29 00:45:30;;;;;;;85.13;35.03;;;8.60;99.90;;;;;;5007797;28;20386;-51
2022/11/29 00:47:56;;;;;;;71.77;33.73;;;8.60;99.90;;;;;;5008601;28;20030;-53
2022/11/29 00:50:21;;;;;;;73.70;34.43;;;8.60;99.90;;;;;;5008483;28;20018;-50
2022/11/29 00:52:47;;;;;;;80.10;36.10;;;8.60;99.90;;;;;;5012961;28;20030;-51
2022/11/29 00:55:13;;;;;;;82.83;35.73;;;8.60;99.90;;;;;;5012726;28;20040;-51
2022/11/29 00:57:39;;;;;;;86.73;35.27;;;8.60;99.90;;;;;;5012990;28;20367;-51
2022/11/29 01:00:05;;;;;;;86.00;36.33;;;8.60;99.90;;;;;;5009753;28;20133;-49
2022/11/29 01:02:31;;;;;;;90.00;37.30;;;8.60;99.90;;;;;;5012781;28;20037;-48
2022/11/29 01:04:56;;;;;;;99.53;38.60;;;8.50;99.90;;;;;;5012430;28;20024;-52
2022/11/29 01:07:22;;;;;;;89.87;36.93;;;8.50;99.90;;;;;;5012326;28;20168;-51
2022/11/29 01:09:48;;;;;;;102.67;38.50;;;8.50;99.90;;;;;;5012393;28;20031;-54
2022/11/29 01:12:13;;;;;;;99.60;37.90;;;8.50;99.90;;;;;;5012404;28;20165;-51
2022/11/29 01:14:39;;;;;;;99.17;37.77;;;8.50;99.90;;;;;;5012210;28;20117;-51
2022/11/29 01:17:05;;;;;;;98.50;40.10;;;8.50;99.90;;;;;;5011803;28;20108;-52
2022/11/29 01:19:30;;;;;;;100.80;39.57;;;8.50;99.90;;;;;;5012250;28;20037;-53
2022/11/29 01:21:56;;;;;;;97.60;38.83;;;8.40;99.90;;;;;;5012281;28;20445;-51
2022/11/29 01:24:22;;;;;;;116.53;40.87;;;8.50;99.90;;;;;;5012410;28;20164;-50
2022/11/29 01:26:47;;;;;;;109.80;40.10;;;8.40;99.90;;;;;;5012087;28;20041;-47
2022/11/29 01:29:13;;;;;;;128.10;41.23;;;8.40;99.90;;;;;;5011675;28;20032;-50
2022/11/29 01:31:39;;;;;;;116.20;41.30;;;8.40;99.90;;;;;;5011334;28;20041;-48
2022/11/29 01:34:06;;;;;;;124.80;42.07;;;8.40;99.90;;;;;;5011859;28;20042;-48
2022/11/29 01:36:32;;;;;;;123.53;42.33;;;8.40;99.90;;;;;;5012207;28;20052;-52
2022/11/29 01:38:59;;;;;;;137.37;43.20;;;8.40;99.90;;;;;;5011855;28;20316;-50
2022/11/29 01:41:27;;;;;;;129.77;42.53;;;8.40;99.90;;;;;;5011760;28;20033;-52
2022/11/29 01:43:59;;;;;;;131.83;42.67;;;8.40;99.90;;;;;;5011731;28;20104;-49
2022/11/29 01:46:29;;;;;;;136.00;42.50;;;8.40;99.90;;;;;;5011362;28;20034;-52
2022/11/29 01:49:00;;;;;;;139.87;44.97;;;8.40;99.90;;;;;;5011628;28;20029;-51
2022/11/29 01:51:28;;;;;;;160.53;44.30;;;8.40;99.90;;;;;;5011849;28;20140;-52
2022/11/29 01:53:55;;;;;;;153.07;46.30;;;8.40;99.90;;;;;;5012030;28;20029;-50
2022/11/29 01:56:21;;;;;;;178.07;47.70;;;8.40;99.90;;;;;;5011707;28;20088;-53
2022/11/29 01:58:47;;;;;;;178.90;46.93;;;8.40;99.90;;;;;;5010929;28;20041;-51
2022/11/29 02:01:13;;;;;;;170.00;47.17;;;8.40;99.90;;;;;;5010968;28;20153;-52
2022/11/29 02:03:39;;;;;;;189.17;47.33;;;8.40;99.90;;;;;;5010998;28;20060;-48
2022/11/29 02:06:06;;;;;;;178.07;48.27;;;8.40;99.90;;;;;;5011581;28;20037;-51
2022/11/29 02:08:40;;;;;;;183.53;50.40;;;8.40;99.90;;;;;;5011194;28;20038;-51
2022/11/29 02:11:27;;;;;;;206.87;48.80;;;8.40;99.90;;;;;;5011238;28;20030;-49
2022/11/29 02:14:14;;;;;;;203.27;50.13;;;8.40;99.90;;;;;;5011132;28;20123;-53
2022/11/29 02:16:54;;;;;;;210.53;49.90;;;8.40;99.90;;;;;;5010696;28;20037;-53
2022/11/29 02:19:55;;;;;;;197.33;50.27;;;8.40;99.90;;;;;;5010798;28;20021;-52
2022/11/29 02:22:45;;;;;;;201.87;49.17;;;8.40;99.90;;;;;;5011261;28;20461;-50
2022/11/29 02:25:49;;;;;;;208.53;50.73;;;8.50;99.90;;;;;;5010936;28;20112;-50
2022/11/29 02:28:33;;;;;;;226.50;51.83;;;8.40;99.90;;;;;;5011101;28;20030;-50
2022/11/29 02:31:36;;;;;;;211.23;50.30;;;8.40;99.90;;;;;;5010309;28;20084;-48
2022/11/29 02:34:05;;;;;;;238.23;52.33;;;8.50;99.90;;;;;;5010830;28;20034;-49
2022/11/29 02:37:10;;;;;;;229.77;52.47;;;8.50;99.90;;;;;;5011062;28;20140;-50
2022/11/29 02:39:59;;;;;;;262.27;54.93;;;8.50;99.90;;;;;;5010819;28;20038;-50
2022/11/29 02:42:28;;;;;;;233.47;54.97;;;8.40;99.90;;;;;;5010794;28;20026;-52
2022/11/29 02:44:57;;;;;;;233.80;53.65;;;8.40;99.90;;;;;;5010573;28;20033;-52
2022/11/29 02:47:25;;;;;;;229.68;53.25;;;8.40;99.90;;;;;;5010478;28;20084;-52
2022/11/29 02:50:10;;;;;;;231.68;53.28;;;8.40;99.90;;;;;;5010719;28;20025;-53
2022/11/29 02:52:46;;;;;;;232.10;51.80;;;8.50;99.90;;;;;;5010599;28;20552;-53
2022/11/29 02:55:20;;;;;;;243.53;54.63;;;8.40;99.90;;;;;;5010726;28;20045;-48
2022/11/29 02:57:49;;;;;;;236.40;52.07;;;8.50;99.90;;;;;;5010754;28;20030;-53
2022/11/29 03:00:20;;;;;;;232.52;51.85;;;8.50;99.90;;;;;;5009208;28;20286;-52
2022/11/29 03:03:07;;;;;;;227.63;53.17;;;8.50;99.90;;;;;;5010331;28;20042;-53
2022/11/29 03:05:40;;;;;;;226.53;51.03;;;8.50;99.90;;;;;;5010732;28;20612;-51
2022/11/29 03:08:09;;;;;;;244.37;53.90;;;8.50;99.90;;;;;;5010327;28;20645;-52
2022/11/29 03:11:11;;;;;;;240.30;55.03;;;8.50;99.90;;;;;;5010076;28;20038;-50
2022/11/29 03:13:47;;;;;;;240.97;53.10;;;8.50;99.90;;;;;;5009171;28;20038;-51
2022/11/29 03:16:28;;;;;;;233.77;51.27;;;8.50;99.90;;;;;;5009176;28;20042;-51
2022/11/29 03:19:09;;;;;;;231.70;52.77;;;8.50;99.90;;;;;;5010071;28;20082;-51
2022/11/29 03:21:38;;;;;;;206.27;50.17;;;8.60;99.90;;;;;;5010174;28;20034;-50
2022/11/29 03:24:10;;;;;;;246.32;52.97;;;8.60;99.90;;;;;;5009855;28;20022;-47
2022/11/29 03:26:46;;;;;;;236.77;52.60;;;8.60;99.90;;;;;;5010265;28;20042;-50
2022/11/29 03:29:22;;;;;;;225.90;50.77;;;8.60;99.90;;;;;;5009507;28;20061;-54
2022/11/29 03:32:16;;;;;;;249.30;51.87;;;8.60;99.90;;;;;;5009426;28;20514;-53
2022/11/29 03:34:48;;;;;;;215.87;50.33;;;8.60;99.90;;;;;;5009993;28;20547;-50
2022/11/29 03:37:20;;;;;;;231.27;53.87;;;8.60;99.90;;;;;;5009893;28;20034;-50
2022/11/29 03:40:07;;;;;;;244.83;52.17;;;8.60;99.90;;;;;;5009653;28;20114;-49
2022/11/29 03:42:42;;;;;;;236.30;51.70;;;8.60;99.90;;;;;;5009735;28;20030;-47
2022/11/29 03:45:17;;;;;;;201.33;48.23;;;8.60;99.90;;;;;;5008791;28;20563;-48
2022/11/29 03:47:59;;;;;;;214.20;50.47;;;8.60;99.90;;;;;;5009573;28;20037;-52
2022/11/29 03:50:32;;;;;;;212.00;48.90;;;8.60;99.90;;;;;;5009287;28;20030;-49
2022/11/29 03:53:10;;;;;;;217.97;50.17;;;8.60;99.90;;;;;;5009822;28;20455;-51
2022/11/29 03:55:56;;;;;;;222.83;51.13;;;8.50;99.90;;;;;;5009527;28;20145;-52
2022/11/29 03:58:40;;;;;;;221.10;50.13;;;8.50;99.90;;;;;;5009160;28;20046;-52
2022/11/29 04:01:27;;;;;;;223.40;51.50;;;8.50;99.90;;;;;;5008469;28;20326;-51
2022/11/29 04:04:04;;;;;;;226.40;51.60;;;8.50;99.90;;;;;;5009213;28;20184;-49
2022/11/29 04:07:00;;;;;;;234.40;48.57;;;8.50;99.90;;;;;;5009165;28;20029;-51
2022/11/29 04:09:38;;;;;;;234.03;48.17;;;8.50;99.90;;;;;;5009158;28;20355;-52
2022/11/29 04:12:15;;;;;;;213.73;47.93;;;8.50;99.90;;;;;;5008812;28;20454;-52
2022/11/29 04:15:22;;;;;;;179.57;46.83;;;8.50;99.90;;;;;;5008880;28;20033;-49
2022/11/29 04:18:19;;;;;;;189.87;48.03;;;8.50;99.90;;;;;;5009088;28;20038;-48
2022/11/29 04:21:00;;;;;;;205.90;46.30;;;8.50;99.90;;;;;;5008743;28;20049;-52
2022/11/29 04:23:41;;;;;;;196.93;46.70;;;8.50;99.90;;;;;;5009062;28;20045;-49
2022/11/29 04:26:21;;;;;;;189.70;46.00;;;8.50;99.90;;;;;;5011662;28;20036;-53
2022/11/29 04:29:06;;;;;;;183.10;43.33;;;8.50;99.90;;;;;;5014737;28;20751;-50
2022/11/29 04:31:31;;;;;;;171.83;40.03;;;8.50;99.90;;;;;;5014638;28;20121;-50
2022/11/29 04:34:27;;;;;;;162.73;39.30;;;8.60;99.90;;;;;;5015278;28;20109;-51
2022/11/29 04:37:02;;;;;;;165.87;39.37;;;8.50;99.90;;;;;;5015464;28;20034;-48
2022/11/29 04:39:49;;;;;;;150.87;38.77;;;8.50;99.90;;;;;;5015215;28;20026;-53
2022/11/29 04:42:41;;;;;;;162.63;38.03;;;8.50;99.90;;;;;;5015528;28;20572;-53
2022/11/29 04:45:24;;;;;;;133.60;34.87;;;8.50;99.90;;;;;;5014777;28;20037;-55
2022/11/29 04:47:56;;;;;;;121.10;33.27;;;8.40;99.90;;;;;;5015274;28;20117;-53
2022/11/29 04:50:49;;;;;;;131.90;33.73;;;8.40;99.90;;;;;;5015216;28;20026;-51
2022/11/29 04:53:15;;;;;;;133.47;37.23;;;8.50;99.90;;;;;;5015399;28;20037;-51
2022/11/29 04:55:59;;;;;;;120.63;33.97;;;8.40;99.90;;;;;;5015182;28;20112;-53
2022/11/29 04:58:45;;;;;;;122.17;31.83;;;8.40;99.90;;;;;;5014959;28;20466;-51
2022/11/29 05:01:17;;;;;;;110.67;30.20;;;8.40;99.90;;;;;;5014439;28;20549;-51
2022/11/29 05:03:50;;;;;;;97.13;28.87;;;8.30;99.90;;;;;;5015327;28;20394;-53
2022/11/29 05:06:28;;;;;;;93.30;26.90;;;8.30;99.90;;;;;;5015348;28;20030;-53
2022/11/29 05:09:13;;;;;;;91.77;26.00;;;8.20;99.90;;;;;;5015393;28;20038;-53
2022/11/29 05:11:46;;;;;;;89.20;24.77;;;8.00;99.90;;;;;;5015125;28;20033;-50
2022/11/29 05:14:42;;;;;;;83.77;23.77;;;8.00;99.90;;;;;;5014401;28;20164;-51
2022/11/29 05:17:36;;;;;;;90.80;24.03;;;8.00;99.90;;;;;;5014187;28;20095;-53
2022/11/29 05:20:23;;;;;;;80.70;24.20;;;7.90;99.90;;;;;;5014861;28;20100;-51
2022/11/29 05:23:27;;;;;;;85.23;24.53;;;7.90;99.90;;;;;;5014792;28;20046;-52
2022/11/29 05:26:04;;;;;;;83.10;23.17;;;7.80;99.90;;;;;;5012334;28;20041;-51
2022/11/29 05:28:36;;;;;;;76.10;23.20;;;7.80;99.90;;;;;;5011649;28;20026;-53
2022/11/29 05:31:17;;;;;;;87.23;23.70;;;7.70;99.90;;;;;;5012930;28;20459;-53
2022/11/29 05:34:09;;;;;;;74.10;21.60;;;7.70;99.90;;;;;;5015309;28;20048;-49
2022/11/29 05:36:52;;;;;;;84.33;23.30;;;7.70;99.90;;;;;;5015034;28;20132;-52
2022/11/29 05:39:29;;;;;;;117.63;30.73;;;7.60;99.90;;;;;;5010994;28;20030;-51
2022/11/29 05:42:33;;;;;;;199.37;39.93;;;7.60;99.90;;;;;;5012087;28;20033;-49
2022/11/29 05:45:13;;;;;;;219.77;41.53;;;7.60;99.90;;;;;;5011102;28;20034;-50
2022/11/29 05:47:55;;;;;;;254.97;45.30;;;7.60;99.90;;;;;;5011211;28;20108;-51
2022/11/29 05:50:29;;;;;;;211.03;42.20;;;7.50;99.90;;;;;;5011382;28;20080;-48
2022/11/29 05:53:28;;;;;;;325.73;46.47;;;7.50;99.90;;;;;;5011913;28;20115;-52
2022/11/29 05:56:13;;;;;;;301.15;43.95;;;7.50;99.90;;;;;;5011996;28;20030;-53
2022/11/29 05:58:59;;;;;;;353.23;47.13;;;7.40;99.90;;;;;;5010714;28;20330;-51
2022/11/29 06:01:30;;;;;;;379.63;48.50;;;7.40;99.90;;;;;;5010605;28;20128;-51
2022/11/29 06:04:13;;;;;;;401.20;48.10;;;7.30;99.90;;;;;;5011645;28;20115;-50
2022/11/29 06:06:52;;;;;;;337.97;47.80;;;7.40;99.90;;;;;;5019590;23;20057;-51
2022/11/29 06:09:43;;;;;;;283.10;46.65;;;7.30;99.90;;;;;;4991737;28;20129;-53
2022/11/29 06:12:18;;;;;;;317.77;47.60;;;7.30;99.90;;;;;;4992019;28;20034;-54
2022/11/29 06:14:46;;;;;;;477.70;51.83;;;7.40;99.90;;;;;;5006421;28;20478;-53
2022/11/29 06:17:32;;;;;;;305.45;46.72;;;7.40;99.90;;;;;;4991056;28;20105;-51
2022/11/29 06:20:17;;;;;;;273.67;44.30;;;7.40;99.90;;;;;;4990172;28;20451;-51
2022/11/29 06:22:46;;;;;;;316.57;43.27;;;7.40;99.90;;;;;;4992034;28;20213;-53
2022/11/29 06:25:38;;;;;;;310.93;43.37;;;7.40;99.90;;;;;;4991614;28;20061;-54
2022/11/29 06:28:15;;;;;;;338.57;42.57;;;7.40;99.90;;;;;;4991682;28;20029;-52
2022/11/29 06:31:12;;;;;;;346.57;42.07;;;7.40;99.90;;;;;;4990715;28;20018;-54
2022/11/29 06:33:47;;;;;;;330.63;44.13;;;7.30;99.90;;;;;;4991589;28;20031;-55
2022/11/29 06:36:21;;;;;;;327.17;42.37;;;7.30;99.90;;;;;;4991403;28;20034;-54
2022/11/29 06:38:47;;;;;;;263.47;42.17;;;7.30;99.90;;;;;;4990436;28;20411;-54
2022/11/29 06:41:23;;;;;;;344.10;41.80;;;7.30;99.90;;;;;;4991688;28;20117;-53
2022/11/29 06:43:49;;;;;;;321.17;42.43;;;7.30;99.90;;;;;;4991120;28;20192;-51
2022/11/29 06:46:32;;;;;;;265.43;41.70;;;7.30;99.90;;;;;;4990184;28;20132;-54
2022/11/29 06:49:04;;;;;;;321.63;45.33;;;7.30;99.90;;;;;;4991001;28;20026;-52
2022/11/29 06:51:39;;;;;;;307.87;43.50;;;7.30;99.90;;;;;;4991229;28;20038;-53
2022/11/29 06:54:29;;;;;;;251.60;40.87;;;7.30;99.90;;;;;;4991011;28;20192;-54
2022/11/29 06:56:59;;;;;;;;;;;7.40;99.90;;;;;;4991225;28;20101;-53
2022/11/29 06:59:51;;;;;;;288.70;41.30;;;7.30;99.90;;;;;;4990372;28;20060;-54
2022/11/29 07:02:30;;;;;;;270.47;44.47;;;7.40;99.90;;;;;;4990084;28;20116;-54
2022/11/29 07:05:02;;;;;;;293.50;45.17;;;7.30;99.90;;;;;;4990801;28;20101;-54
2022/11/29 07:07:28;;;;;;;297.60;45.47;;;7.30;99.90;;;;;;4990505;28;20439;-54
2022/11/29 07:09:59;;;;;;;265.73;44.83;;;7.30;99.90;;;;;;4990185;28;20093;-51
2022/11/29 07:12:26;;;;;;;280.37;45.17;;;7.30;99.90;;;;;;4989458;28;20039;-53
2022/11/29 07:14:52;;;;;;;259.50;44.00;;;7.30;99.90;;;;;;4990223;28;20070;-52
2022/11/29 07:17:44;;;;;;;284.63;44.37;;;7.40;99.90;;;;;;4989155;28;20345;-50
2022/11/29 07:20:49;;;;;;;241.53;43.37;;;7.40;99.90;;;;;;4990277;28;20034;-44
2022/11/29 07:23:40;;;;;;;244.60;44.00;;;7.50;99.90;;;;;;4989990;28;20371;-44
2022/11/29 07:26:31;;;;;;;272.38;45.63;;;7.50;99.90;;;;;;4990268;28;20037;-44
2022/11/29 07:29:05;;;;;;;221.17;42.27;;;7.50;99.90;;;;;;4989539;28;20030;-43
2022/11/29 07:31:51;;;;;;;273.70;45.90;;;7.50;99.90;;;;;;4989600;28;20551;-49
2022/11/29 07:34:38;;;;;;;248.43;47.13;;;7.50;99.90;;;;;;4989576;28;20035;-48
2022/11/29 07:37:15;;;;;;;250.63;44.13;;;7.50;99.90;;;;;;4990250;28;20030;-50
2022/11/29 07:39:58;;;;;;;233.07;42.67;;;7.50;99.90;;;;;;4990131;28;20038;-51
2022/11/29 07:43:03;;;;;;;254.17;43.63;;;7.60;99.90;;;;;;4990132;28;20066;-48
2022/11/29 07:45:36;;;;;;;247.77;45.27;;;7.50;99.90;;;;;;4989082;28;20654;-49
2022/11/29 07:48:03;;;;;;;235.37;46.80;;;7.50;99.90;;;;;;4989915;28;20046;-50
2022/11/29 07:50:29;;;;;;;228.07;41.63;;;7.50;99.90;;;;;;4989516;28;20342;-50
2022/11/29 07:52:56;;;;;;;242.10;43.63;;;7.60;99.90;;;;;;4990091;28;20045;-50
2022/11/29 07:55:24;;;;;;;233.77;42.30;;;7.60;99.90;;;;;;4989808;28;20033;-50
2022/11/29 07:57:51;;;;;;;218.03;40.60;;;7.70;99.90;;;;;;4989894;28;20416;-49
2022/11/29 08:00:18;;;;;;;216.60;40.43;;;7.70;99.90;;;;;;4988032;28;20391;-46
2022/11/29 08:02:45;;;;;;;217.57;41.77;;;7.80;99.90;;;;;;4990050;28;20066;-56
2022/11/29 08:05:10;;;;;;;208.03;41.77;;;7.80;99.90;;;;;;4989183;28;20554;-50
2022/11/29 08:07:38;;;;;;;205.40;41.73;;;7.70;99.90;;;;;;4987944;28;20070;-53
2022/11/29 08:10:08;;;;;;;202.47;41.07;;;7.80;99.90;;;;;;4987944;28;20471;-48
2022/11/29 08:12:33;;;;;;;199.50;39.47;;;7.90;99.90;;;;;;4990206;28;20038;-52
2022/11/29 08:14:59;;;;;;;209.00;39.37;;;7.90;99.90;;;;;;4991227;28;20048;-49
2022/11/29 08:17:25;;;;;;;193.17;39.10;;;8.00;99.90;;;;;;5007207;28;20485;-46
2022/11/29 08:19:51;;;;;;;197.10;38.73;;;8.00;99.90;;;;;;5009118;28;20034;-46
2022/11/29 08:22:17;;;;;;;166.47;37.57;;;8.00;99.90;;;;;;5009456;28;20566;-61
2022/11/29 08:24:43;;;;;;;174.73;37.80;;;8.00;99.90;;;;;;5008883;28;20101;-50
2022/11/29 08:27:09;;;;;;;165.23;34.63;;;8.00;99.90;;;;;;5008305;28;20475;-49
2022/11/29 08:29:34;;;;;;;179.23;36.77;;;8.00;99.90;;;;;;5008768;28;20033;-54
2022/11/29 08:32:01;;;;;;;167.30;36.03;;;8.00;99.90;;;;;;5008711;28;20034;-52
2022/11/29 08:34:26;;;;;;;168.53;34.90;;;8.00;99.90;;;;;;5009200;28;20044;-51
2022/11/29 08:36:55;;;;;;;184.83;35.60;;;8.00;99.90;;;;;;5009082;28;20026;-49
2022/11/29 08:39:20;;;;;;;163.47;34.70;;;8.00;99.90;;;;;;5009311;28;20622;-51
2022/11/29 08:41:48;;;;;;;166.97;35.13;;;8.00;99.90;;;;;;5009264;28;20037;-48
2022/11/29 08:44:14;;;;;;;183.53;34.90;;;8.00;99.90;;;;;;5009001;28;20400;-54
2022/11/29 08:49:24;;;;;;;207.97;35.73;;;7.90;99.90;;;;;;4992890;28;20040;-51
2022/11/29 08:53:40;;;;;;;192.47;36.83;;;7.80;99.90;;;;;;4998684;28;20033;-54
2022/11/29 08:54:38;;;;;;;214.15;35.40;;;7.80;99.90;;;;;;4989208;28;20124;-55
2022/11/29 08:57:04;;;;;;;234.20;35.33;;;7.80;99.90;;;;;;4994771;28;20084;-52
2022/11/29 08:59:29;;;;;;;196.30;34.77;;;7.70;99.90;;;;;;4988628;28;20332;-55
2022/11/29 09:01:55;;;;;;;196.37;32.63;;;7.70;99.90;;;;;;4988569;28;20026;-55
2022/11/29 09:04:21;;;;;;;221.90;33.23;;;7.70;99.90;;;;;;4989281;28;20554;-52
2022/11/29 09:06:48;;;;;;;192.10;33.23;;;7.60;99.90;;;;;;4988279;28;20035;-57
2022/11/29 09:09:15;;;;;;;191.53;34.83;;;7.70;99.90;;;;;;4988687;28;20116;-52
2022/11/29 09:11:41;;;;;;;174.97;32.83;;;7.70;99.90;;;;;;4989071;28;20038;-51
2022/11/29 09:14:09;;;;;;;208.10;32.27;;;7.80;99.90;;;;;;4990973;28;20057;-50
2022/11/29 09:16:36;;;;;;;181.27;30.20;;;7.70;99.90;;;;;;4993517;28;20037;-51
2022/11/29 09:19:05;;;;;;;166.50;29.83;;;7.70;99.90;;;;;;5012264;28;20431;-51
2022/11/29 09:21:35;;;;;;;160.95;28.25;;;7.70;99.90;;;;;;5003870;28;20077;-53
2022/11/29 09:24:05;;;;;;;202.40;30.40;;;7.80;99.90;;;;;;4985506;28;20068;-49
2022/11/29 09:26:34;;;;;;;184.50;31.50;;;7.70;99.90;;;;;;4991429;28;20038;-49
2022/11/29 09:29:01;;;;;;;180.52;29.88;;;7.80;99.90;;;;;;4991762;28;20559;-51
2022/11/29 09:31:28;;;;;;;168.70;28.67;;;7.80;99.90;;;;;;4990360;28;20085;-52
2022/11/29 09:33:55;;;;;;;177.47;33.10;;;7.90;99.90;;;;;;5005558;28;20077;-49
2022/11/29 09:36:21;;;;;;;176.00;31.10;;;7.90;99.90;;;;;;5011006;28;20029;-51
2022/11/29 09:38:47;;;;;;;177.60;31.87;;;7.90;99.90;;;;;;5011278;28;20084;-50
2022/11/29 09:41:26;;;;;;;166.93;30.70;;;7.90;99.90;;;;;;5004644;28;20121;-49
2022/11/29 09:44:17;;;;;;;175.52;31.40;;;8.00;99.90;;;;;;5003552;28;20459;-47
2022/11/29 09:47:07;;;;;;;164.03;31.43;;;8.10;99.90;;;;;;5010563;28;20057;-47
2022/11/29 09:50:20;;;;;;;167.10;34.20;;;8.10;99.90;;;;;;5011199;28;20044;-49
2022/11/29 09:53:10;;;;;;;165.30;32.73;;;8.20;99.90;;;;;;4971764;28;20038;-50
2022/11/29 09:55:57;;;;;;;157.07;30.40;;;8.20;99.90;;;;;;4991824;28;20554;-53
2022/11/29 09:58:46;;;;;;;154.33;31.17;;;8.20;99.90;;;;;;4979504;28;20030;-52
2022/11/29 10:01:27;;;;;;;141.35;29.92;;;8.20;99.90;;;;;;4989767;28;20125;-49
2022/11/29 10:03:58;;;;;;;142.93;33.23;;;8.20;99.90;;;;;;4998185;28;20050;-50
2022/11/29 10:06:39;;;;;;;135.47;29.40;;;8.30;99.90;;;;;;5010324;28;20108;-53
2022/11/29 10:09:12;;;;;;;126.57;30.93;;;8.30;99.90;;;;;;4996397;28;20038;-53
2022/11/29 10:11:59;;;;;;;130.57;31.17;;;8.40;99.90;;;;;;4988482;28;20487;-54
2022/11/29 10:14:44;;;;;;;123.80;30.03;;;8.40;99.90;;;;;;5005729;28;20474;-52
2022/11/29 10:17:45;;;;;;;109.73;27.07;;;8.50;99.90;;;;;;5009155;28;20474;-55
2022/11/29 10:20:22;;;;;;;105.07;26.83;;;8.50;99.90;;;;;;4970225;28;20043;-52
2022/11/29 10:22:54;;;;;;;108.97;26.67;;;8.50;99.90;;;;;;4972346;28;20154;-51
2022/11/29 10:25:41;;;;;;;110.10;27.67;;;8.40;99.90;;;;;;4971511;28;20093;-50
2022/11/29 10:28:14;;;;;;;99.77;26.60;;;8.40;99.90;;;;;;4973217;28;20050;-49
2022/11/29 10:30:41;;;;;;;107.47;28.00;;;8.30;99.90;;;;;;4988149;28;20026;-53
2022/11/29 10:33:18;;;;;;;94.33;26.60;;;8.30;99.90;;;;;;4989773;28;20038;-50
2022/11/29 10:35:46;;;;;;;106.57;28.30;;;8.30;99.90;;;;;;4991491;28;20034;-51
2022/11/29 10:38:14;;;;;;;106.97;28.57;;;8.40;99.90;;;;;;4991238;28;20034;-51
2022/11/29 10:40:44;;;;;;;108.87;29.60;;;8.30;99.90;;;;;;4991181;28;20491;-51
2022/11/29 10:43:10;;;;;;;107.57;29.70;;;8.30;99.90;;;;;;4991560;28;20398;-52
2022/11/29 10:45:43;;;;;;;104.80;28.83;;;8.30;99.90;;;;;;4990049;28;20027;-51
2022/11/29 10:48:17;;;;;;;98.83;27.73;;;8.30;99.90;;;;;;4991017;28;20034;-51
2022/11/29 10:50:44;;;;;;;103.30;28.87;;;8.30;99.90;;;;;;4990580;28;20543;-50
2022/11/29 10:53:23;;;;;;;99.60;27.57;;;8.40;99.90;;;;;;4991320;28;20043;-51
2022/11/29 10:55:55;;;;;;;102.10;28.60;;;8.30;99.90;;;;;;4992142;28;20097;-53
2022/11/29 10:58:26;;;;;;;108.33;28.73;;;8.30;99.90;;;;;;5009983;28;20041;-53
2022/11/29 11:00:57;;;;;;;110.33;29.73;;;8.20;99.90;;;;;;5009412;28;20104;-53
2022/11/29 11:03:47;;;;;;;111.70;29.53;;;8.30;99.90;;;;;;5010404;28;20030;-53
2022/11/29 11:06:15;;;;;;;116.17;31.37;;;8.20;99.90;;;;;;5010052;28;20030;-53
2022/11/29 11:08:52;;;;;;;116.13;28.63;;;8.20;99.90;;;;;;5009641;28;20479;-54
2022/11/29 11:11:30;;;;;;;112.57;29.53;;;8.20;99.90;;;;;;5010357;28;20040;-53
2022/11/29 11:14:04;;;;;;;131.85;31.90;;;8.20;99.90;;;;;;5010117;28;20372;-54
2022/11/29 11:16:31;;;;;;;121.00;30.20;;;8.10;99.90;;;;;;5009275;28;20084;-54
2022/11/29 11:18:57;;;;;;;126.60;32.83;;;8.10;99.90;;;;;;5010072;28;20026;-52
2022/11/29 11:21:26;;;;;;;117.87;30.67;;;8.20;99.90;;;;;;5010032;28;20470;-53
2022/11/29 11:23:56;;;;;;;115.78;29.52;;;8.20;99.90;;;;;;5010296;28;20061;-52
2022/11/29 11:26:24;;;;;;;127.87;31.57;;;8.30;99.90;;;;;;5009654;28;20046;-53
2022/11/29 11:29:01;;;;;;;129.60;31.80;;;8.30;99.90;;;;;;5008116;28;20459;-55
2022/11/29 11:31:36;;;;;;;133.53;31.70;;;8.20;99.90;;;;;;5009045;28;20040;-55
2022/11/29 11:34:21;;;;;;;129.10;32.73;;;8.20;99.90;;;;;;5010144;28;20034;-52
2022/11/29 11:36:47;;;;;;;133.20;32.03;;;8.20;99.90;;;;;;5008564;28;20044;-52
2022/11/29 11:39:19;;;;;;;126.97;33.40;;;8.30;99.90;;;;;;5009851;28;20117;-52
2022/11/29 11:44:49;;;;;;;117.13;31.57;;;8.30;99.90;;;;;;5010176;28;20399;-50
2022/11/29 11:47:36;;;;;;;116.53;32.10;;;8.20;99.90;;;;;;5008916;28;20030;-51
2022/11/29 11:50:02;;;;;;;125.67;32.43;;;8.20;99.90;;;;;;5009782;28;20033;-52
2022/11/29 11:52:33;;;;;;;128.30;34.37;;;8.20;99.90;;;;;;5009930;28;20553;-52
2022/11/29 11:55:03;;;;;;;123.77;33.63;;;8.10;99.90;;;;;;5010044;28;20057;-54
2022/11/29 11:57:30;;;;;;;125.87;33.73;;;8.20;99.90;;;;;;4995139;28;20106;-50
2022/11/29 11:59:58;;;;;;;124.27;35.40;;;8.20;99.90;;;;;;4989599;28;20532;-52
2022/11/29 12:02:35;;;;;;;134.20;36.93;;;8.20;99.90;;;;;;4989496;28;20159;-53
2022/11/29 12:05:02;;;;;;;131.97;36.87;;;8.30;99.90;;;;;;4990015;28;20042;-53
2022/11/29 12:07:50;;;;;;;125.30;33.20;;;8.30;99.90;;;;;;5011710;23;20044;-56
2022/11/29 12:10:23;;;;;;;140.53;37.13;;;8.30;99.90;;;;;;5008291;28;20864;-53
2022/11/29 12:12:51;;;;;;;123.30;34.17;;;8.30;99.90;;;;;;5009331;28;20030;-55
2022/11/29 12:15:30;;;;;;;123.77;35.43;;;8.30;99.90;;;;;;5007915;28;20499;-54
2022/11/29 12:18:25;;;;;;;145.73;42.55;;;8.30;99.90;;;;;;5008871;28;20076;-54
2022/11/29 12:21:06;;;;;;;133.67;38.10;;;8.30;99.90;;;;;;5008986;28;20304;-54
2022/11/29 12:23:51;;;;;;;129.93;38.17;;;8.30;99.90;;;;;;5008875;28;20065;-55
2022/11/29 12:26:20;;;;;;;127.30;36.17;;;8.30;99.90;;;;;;5008990;28;20143;-55
2022/11/29 12:28:46;;;;;;;132.95;37.42;;;8.30;99.90;;;;;;5008508;28;20029;-55
2022/11/29 12:31:30;;;;;;;123.07;35.87;;;8.30;99.90;;;;;;5008304;28;20100;-50
2022/11/29 12:34:14;;;;;;;124.30;37.87;;;8.40;99.90;;;;;;5008908;28;20093;-54
2022/11/29 12:36:49;;;;;;;119.37;36.83;;;8.40;99.90;;;;;;5008663;28;20570;-52
2022/11/29 12:39:33;;;;;;;127.83;36.93;;;8.40;99.90;;;;;;5008825;28;20105;-52
2022/11/29 12:42:29;;;;;;;115.30;35.97;;;8.40;99.90;;;;;;5008905;28;20479;-54
2022/11/29 12:45:18;;;;;;;112.23;33.83;;;8.40;99.90;;;;;;5008569;28;20100;-55
2022/11/29 12:48:14;;;;;;;119.63;37.13;;;8.40;99.90;;;;;;5010964;28;20048;-51
2022/11/29 12:51:04;;;;;;;107.00;35.50;;;8.30;99.90;;;;;;5011298;28;20346;-53
2022/11/29 12:54:09;;;;;;;113.57;36.20;;;8.30;99.90;;;;;;5012824;28;20038;-52
2022/11/29 12:56:40;;;;;;;119.40;35.43;;;8.30;99.90;;;;;;5019532;28;20031;-55
2022/11/29 12:59:06;;;;;;;112.53;35.83;;;8.30;99.90;;;;;;5031933;28;20163;-51
2022/11/29 13:01:45;;;;;;;128.10;36.50;;;8.30;99.90;;;;;;5031874;28;20112;-51
2022/11/29 13:04:32;;;;;;;;;;;8.30;99.90;;;;;;5032982;28;20053;-54
2022/11/29 13:07:39;;;;;;;128.13;35.23;;;8.30;99.90;;;;;;5031957;28;19923;-52
2022/11/29 13:10:28;;;;;;;117.60;35.73;;;8.30;99.90;;;;;;5047090;28;20036;-54
2022/11/29 13:13:24;;;;;;;117.05;37.25;;;8.30;99.90;;;;;;5032396;28;20528;-55
2022/11/29 13:16:16;;;;;;;117.53;35.00;;;8.30;99.90;;;;;;5031687;28;20505;-54
2022/11/29 13:19:11;;;;;;;124.53;38.37;;;8.30;99.90;;;;;;5039911;28;20096;-51